Time;durP1;ratioP1;P1;durP2;ratioP2;P2;SDS_P1;SDS_P2;PMS_P1;PMS_P2;Temp;Humidity;BMP_temperature;BMP_pressure;BME280_temperature;BME280_humidity;BME280_pressure;Samples;Min_cycle;Max_cycle;Signal;HPM_P1;HPM_P2
2023/04/22 00:00:49;;;;;;;8.07;6.93;;;11.10;99.90;;;;;;5081315;28;20045;-80
2023/04/22 00:03:14;;;;;;;8.02;7.40;;;11.00;99.90;;;;;;5047903;28;20125;-79
2023/04/22 00:05:40;;;;;;;13.15;8.77;;;11.00;99.90;;;;;;5046458;28;20037;-79
2023/04/22 00:08:07;;;;;;;8.02;7.20;;;10.90;99.90;;;;;;5041477;28;20716;-79
2023/04/22 00:10:33;;;;;;;79.85;9.63;;;10.90;99.90;;;;;;5074263;28;20049;-80
2023/04/22 00:12:58;;;;;;;11.10;5.75;;;10.90;99.90;;;;;;5040818;28;20044;-80
2023/04/22 00:15:25;;;;;;;14.85;5.95;;;10.80;99.90;;;;;;5041671;28;20029;-80
2023/04/22 00:17:51;;;;;;;216.05;12.00;;;10.70;99.90;;;;;;5039442;28;20515;-80
2023/04/22 00:20:20;;;;;;;95.95;7.50;;;10.60;99.90;;;;;;5041453;28;20041;-80
2023/04/22 00:22:46;;;;;;;29.88;4.43;;;10.40;99.90;;;;;;5042321;28;20041;-80
2023/04/22 00:25:11;;;;;;;134.95;9.48;;;10.40;99.90;;;;;;5038862;28;20049;-79
2023/04/22 00:27:37;;;;;;;35.65;7.22;;;10.20;99.90;;;;;;5040303;28;20044;-80
2023/04/22 00:30:03;;;;;;;127.70;11.20;;;10.00;99.90;;;;;;5042021;28;20060;-80
2023/04/22 00:32:29;;;;;;;274.95;19.00;;;10.00;99.90;;;;;;5040233;28;20051;-80
2023/04/22 00:34:56;;;;;;;319.40;22.23;;;9.80;99.90;;;;;;5072570;28;20044;-80
2023/04/22 00:37:22;;;;;;;90.07;14.95;;;9.70;99.90;;;;;;5043302;28;20096;-80
2023/04/22 00:39:48;;;;;;;11.10;9.50;;;9.60;99.90;;;;;;5040624;28;20029;-80
2023/04/22 00:42:14;;;;;;;9.57;8.68;;;9.60;99.90;;;;;;5041672;28;20079;-79
2023/04/22 00:44:41;;;;;;;10.23;8.88;;;9.60;99.90;;;;;;5070277;28;20419;-80
2023/04/22 00:47:10;;;;;;;10.63;9.52;;;9.50;99.90;;;;;;5041576;28;20075;-80
2023/04/22 00:49:36;;;;;;;5.82;5.00;;;9.50;99.90;;;;;;5039456;28;20047;-79
2023/04/22 00:52:02;;;;;;;88.72;8.27;;;9.50;99.90;;;;;;5056993;28;20095;-80
2023/04/22 00:54:28;;;;;;;24.70;5.85;;;9.40;99.90;;;;;;5039004;28;20514;-80
2023/04/22 00:56:56;;;;;;;7.70;7.00;;;9.40;99.90;;;;;;5035457;28;20049;-80
2023/04/22 00:59:23;;;;;;;30.92;8.20;;;9.30;99.90;;;;;;5038881;28;20044;-80
2023/04/22 01:01:49;;;;;;;5.60;5.10;;;9.30;99.90;;;;;;5041271;28;20083;-80
2023/04/22 01:04:15;;;;;;;14.18;5.20;;;9.20;99.90;;;;;;5040743;28;20041;-80
2023/04/22 01:06:42;;;;;;;127.10;9.23;;;9.10;99.90;;;;;;5041990;28;20045;-80
2023/04/22 01:09:08;;;;;;;10.52;4.00;;;9.10;99.90;;;;;;5043768;28;20059;-80
2023/04/22 01:11:35;;;;;;;44.85;5.93;;;9.10;99.90;;;;;;5037278;28;20041;-80
2023/04/22 01:14:01;;;;;;;45.42;7.15;;;9.10;99.90;;;;;;5037575;28;20055;-80
2023/04/22 01:16:28;;;;;;;36.08;7.28;;;9.00;99.90;;;;;;5036209;28;20055;-80
2023/04/22 01:18:54;;;;;;;8.02;5.93;;;8.90;99.90;;;;;;5038598;28;20048;-80
2023/04/22 01:21:20;;;;;;;24.35;6.53;;;8.90;99.90;;;;;;5038238;28;20406;-79
2023/04/22 01:23:46;;;;;;;4.38;4.03;;;8.90;99.90;;;;;;5037759;28;20048;-80
2023/04/22 01:26:11;;;;;;;82.95;7.78;;;8.90;99.90;;;;;;5041640;28;20503;-79
2023/04/22 01:28:37;;;;;;;132.23;10.82;;;8.90;99.90;;;;;;5037707;28;20087;-80
2023/04/22 01:31:03;;;;;;;16.40;7.13;;;8.90;99.90;;;;;;5038174;28;20041;-79
2023/04/22 01:33:29;;;;;;;9.88;6.20;;;9.10;99.90;;;;;;5035236;28;20051;-79
2023/04/22 01:35:55;;;;;;;6.47;5.97;;;8.80;99.90;;;;;;5039193;28;20045;-79
2023/04/22 01:38:22;;;;;;;8.60;7.85;;;8.90;99.90;;;;;;5040526;28;20047;-79
2023/04/22 01:40:47;;;;;;;9.70;7.22;;;8.80;99.90;;;;;;5037886;28;20104;-80
2023/04/22 01:43:13;;;;;;;9.93;8.93;;;8.90;99.90;;;;;;5040572;28;20037;-80
2023/04/22 01:45:38;;;;;;;125.75;11.05;;;8.90;99.90;;;;;;5035976;28;20110;-79
2023/04/22 01:48:05;;;;;;;27.05;7.97;;;8.90;99.90;;;;;;5040671;28;20441;-80
2023/04/22 01:50:32;;;;;;;8.38;7.68;;;8.80;99.90;;;;;;5039353;28;20120;-79
2023/04/22 01:52:58;;;;;;;10.48;9.48;;;8.70;99.90;;;;;;5041425;28;20097;-80
2023/04/22 01:55:23;;;;;;;5.40;5.00;;;8.80;99.90;;;;;;5038771;28;20041;-80
2023/04/22 01:57:49;;;;;;;3.22;3.03;;;8.70;99.90;;;;;;5036770;28;20851;-80
2023/04/22 02:00:15;;;;;;;34.40;7.22;;;8.70;99.90;;;;;;5055812;28;20108;-80
2023/04/22 02:02:40;;;;;;;302.80;17.17;;;8.60;99.90;;;;;;5039558;28;20037;-80
2023/04/22 02:05:07;;;;;;;98.28;11.80;;;8.60;99.90;;;;;;5041189;28;20114;-79
2023/04/22 02:07:32;;;;;;;8.90;8.15;;;8.50;99.90;;;;;;5042742;28;20045;-80
2023/04/22 02:09:58;;;;;;;5.28;4.88;;;8.50;99.90;;;;;;5045408;28;20075;-80
2023/04/22 02:12:24;;;;;;;31.52;5.25;;;8.40;99.90;;;;;;5039490;28;20509;-80
2023/04/22 02:14:49;;;;;;;5.60;5.20;;;8.30;99.90;;;;;;5041140;28;20048;-80
2023/04/22 02:17:16;;;;;;;10.30;9.32;;;8.30;99.90;;;;;;5039014;28;20045;-80
2023/04/22 02:19:42;;;;;;;24.00;6.85;;;8.30;99.90;;;;;;5069016;28;20572;-79
2023/04/22 02:22:07;;;;;;;55.38;9.75;;;8.30;99.90;;;;;;5039509;28;20128;-79
2023/04/22 02:24:33;;;;;;;28.05;11.48;;;8.30;99.90;;;;;;5040791;28;20053;-80
2023/04/22 02:26:59;;;;;;;15.05;11.98;;;8.40;99.90;;;;;;5039424;28;20055;-80
2023/04/22 02:29:24;;;;;;;20.63;10.88;;;8.50;99.90;;;;;;5039033;28;20037;-79
2023/04/22 02:31:50;;;;;;;15.38;11.82;;;8.50;99.90;;;;;;5037756;28;20052;-80
2023/04/22 02:34:15;;;;;;;12.90;11.45;;;8.60;99.90;;;;;;5035408;28;20072;-80
2023/04/22 02:36:41;;;;;;;12.07;10.93;;;8.60;99.90;;;;;;5035011;28;20052;-80
2023/04/22 02:39:06;;;;;;;218.73;13.50;;;8.70;99.90;;;;;;5039363;28;20034;-80
2023/04/22 02:41:32;;;;;;;35.97;7.43;;;8.60;99.90;;;;;;5055199;28;20045;-80
2023/04/22 02:43:57;;;;;;;133.90;12.52;;;8.50;99.90;;;;;;5036760;28;20558;-80
2023/04/22 02:46:23;;;;;;;25.27;11.20;;;8.40;99.90;;;;;;5038266;28;20136;-80
2023/04/22 02:48:48;;;;;;;27.83;9.98;;;8.40;99.90;;;;;;5038593;28;20144;-80
2023/04/22 02:51:14;;;;;;;32.70;10.90;;;8.30;99.90;;;;;;5038740;28;20132;-80
2023/04/22 02:53:40;;;;;;;32.22;12.65;;;8.30;99.90;;;;;;5038210;28;20041;-79
2023/04/22 02:56:07;;;;;;;10.85;9.88;;;8.30;99.90;;;;;;5037952;28;20048;-80
2023/04/22 02:58:33;;;;;;;18.08;4.75;;;8.20;99.90;;;;;;5038908;28;20056;-79
2023/04/22 03:00:58;;;;;;;40.33;4.70;;;8.20;99.90;;;;;;5038865;28;20056;-80
2023/04/22 03:03:24;;;;;;;72.00;5.65;;;8.00;99.90;;;;;;5035175;28;20044;-79
2023/04/22 03:05:49;;;;;;;126.55;9.38;;;8.00;99.90;;;;;;5039373;28;20044;-80
2023/04/22 03:08:15;;;;;;;71.88;7.15;;;7.90;99.90;;;;;;5045796;28;20087;-79
2023/04/22 03:10:40;;;;;;;50.78;7.57;;;7.80;99.90;;;;;;5043654;28;20049;-79
2023/04/22 03:13:06;;;;;;;418.98;20.85;;;7.90;99.90;;;;;;5038875;28;20041;-79
2023/04/22 03:15:31;;;;;;;4.85;3.97;;;8.00;99.90;;;;;;5041417;28;20157;-79
2023/04/22 03:17:57;;;;;;;170.82;14.52;;;7.90;99.90;;;;;;5040214;28;20128;-80
2023/04/22 03:20:22;;;;;;;3.28;2.72;;;7.90;99.90;;;;;;5044772;28;20689;-80
2023/04/22 03:22:48;;;;;;;49.22;6.90;;;7.90;99.90;;;;;;5045272;28;20467;-80
2023/04/22 03:25:14;;;;;;;7.47;3.40;;;7.70;99.90;;;;;;5042586;28;20048;-80
2023/04/22 03:27:39;;;;;;;17.27;2.65;;;7.70;99.90;;;;;;5070827;28;20049;-80
2023/04/22 03:30:05;;;;;;;60.72;4.65;;;7.60;99.90;;;;;;5041689;28;20045;-80
2023/04/22 03:32:31;;;;;;;111.43;5.75;;;7.60;99.90;;;;;;5040532;28;20033;-79
2023/04/22 03:34:56;;;;;;;8.07;2.20;;;7.60;99.90;;;;;;5038130;28;20056;-80
2023/04/22 03:37:22;;;;;;;1.80;1.40;;;7.50;99.90;;;;;;5037889;28;21329;-80
2023/04/22 03:39:47;;;;;;;108.72;5.53;;;7.40;99.90;;;;;;5042784;28;20807;-79
2023/04/22 03:42:14;;;;;;;164.30;8.50;;;7.40;99.90;;;;;;5040673;28;20537;-79
2023/04/22 03:44:39;;;;;;;1.52;1.42;;;7.40;99.90;;;;;;5053160;28;20052;-79
2023/04/22 03:47:05;;;;;;;8.85;4.22;;;7.30;99.90;;;;;;5038192;28;20519;-79
2023/04/22 03:49:31;;;;;;;2.30;1.92;;;7.30;99.90;;;;;;5040629;28;20070;-79
2023/04/22 03:51:56;;;;;;;114.07;11.65;;;7.30;99.90;;;;;;5037986;28;20075;-79
2023/04/22 03:54:22;;;;;;;136.63;13.10;;;7.20;99.90;;;;;;5042203;28;20402;-79
2023/04/22 03:56:48;;;;;;;58.85;12.05;;;7.30;99.90;;;;;;5055591;28;20079;-79
2023/04/22 03:59:14;;;;;;;59.35;6.43;;;7.40;99.90;;;;;;5039279;28;20060;-79
2023/04/22 04:01:39;;;;;;;4.75;4.35;;;7.50;99.90;;;;;;5038672;28;20127;-79
2023/04/22 04:04:05;;;;;;;5.70;2.40;;;7.30;99.90;;;;;;5043702;28;20053;-79
2023/04/22 04:06:30;;;;;;;4.50;2.70;;;7.30;99.90;;;;;;5046163;28;20033;-79
2023/04/22 04:08:57;;;;;;;4.28;2.45;;;7.20;99.90;;;;;;5047281;28;20479;-79
2023/04/22 04:11:22;;;;;;;3.70;3.40;;;7.20;99.90;;;;;;5044250;28;20094;-80
2023/04/22 04:13:48;;;;;;;90.38;6.78;;;7.20;99.90;;;;;;5037580;28;20099;-79
2023/04/22 04:16:13;;;;;;;59.00;6.22;;;7.20;99.90;;;;;;5040493;28;20049;-80
2023/04/22 04:18:39;;;;;;;266.15;12.95;;;7.20;99.90;;;;;;5040492;28;20052;-79
2023/04/22 04:21:05;;;;;;;269.67;12.35;;;7.30;99.90;;;;;;5039843;28;20624;-79
2023/04/22 04:23:31;;;;;;;273.88;16.55;;;7.20;99.90;;;;;;5038343;28;20444;-79
2023/04/22 04:25:56;;;;;;;40.67;13.15;;;7.30;99.90;;;;;;5038566;28;20037;-79
2023/04/22 04:28:22;;;;;;;18.10;14.18;;;7.50;99.90;;;;;;5036730;28;20044;-79
2023/04/22 04:30:47;;;;;;;17.38;15.45;;;7.60;99.90;;;;;;5040140;28;20072;-79
2023/04/22 04:33:15;;;;;;;17.75;15.85;;;7.70;99.90;;;;;;5038918;28;20203;-78
2023/04/22 04:35:42;;;;;;;19.27;17.17;;;7.80;99.90;;;;;;5040882;28;20049;-78
2023/04/22 04:38:07;;;;;;;17.83;16.02;;;8.00;99.90;;;;;;5041306;28;20045;-79
2023/04/22 04:40:33;;;;;;;17.92;16.00;;;8.20;99.90;;;;;;5038149;28;20076;-78
2023/04/22 04:43:02;;;;;;;17.80;16.10;;;8.40;99.90;;;;;;5040391;28;20069;-78
2023/04/22 04:45:28;;;;;;;18.00;16.10;;;8.60;99.90;;;;;;5038178;28;20072;-79
2023/04/22 04:47:54;;;;;;;17.63;15.85;;;8.90;99.90;;;;;;5038765;28;20068;-79
2023/04/22 04:50:20;;;;;;;15.40;13.93;;;9.10;99.90;;;;;;5056435;28;20037;-79
2023/04/22 04:52:49;;;;;;;15.93;14.13;;;9.10;99.90;;;;;;5039332;28;20033;-79
2023/04/22 04:55:15;;;;;;;13.30;12.02;;;9.10;99.90;;;;;;5040055;28;20056;-79
2023/04/22 04:57:45;;;;;;;13.50;12.27;;;9.10;99.90;;;;;;5037651;28;20090;-79
2023/04/22 05:00:13;;;;;;;13.63;12.32;;;9.00;99.90;;;;;;5037230;28;20041;-79
2023/04/22 05:02:39;;;;;;;14.90;13.50;;;8.90;99.90;;;;;;5037203;28;20041;-79
2023/04/22 05:05:05;;;;;;;12.38;11.18;;;8.90;99.90;;;;;;5047369;28;20044;-79
2023/04/22 05:07:31;;;;;;;11.93;10.63;;;8.80;99.90;;;;;;5037098;28;20040;-79
2023/04/22 05:09:56;;;;;;;12.25;11.15;;;8.80;99.90;;;;;;5036087;28;20518;-79
2023/04/22 05:12:22;;;;;;;12.02;11.00;;;8.80;99.90;;;;;;5033936;28;20045;-79
2023/04/22 05:14:48;;;;;;;13.23;11.80;;;8.90;99.90;;;;;;5066048;28;20084;-79
2023/04/22 05:17:13;;;;;;;10.02;9.13;;;8.80;99.90;;;;;;5036246;28;20137;-79
2023/04/22 05:19:39;;;;;;;11.77;10.57;;;8.70;99.90;;;;;;5035409;28;20104;-79
2023/04/22 05:22:06;;;;;;;10.27;9.32;;;8.70;99.90;;;;;;5035836;28;20068;-79
2023/04/22 05:24:32;;;;;;;9.63;8.73;;;8.70;99.90;;;;;;5034698;28;20106;-79
2023/04/22 05:26:58;;;;;;;10.20;9.25;;;8.60;99.90;;;;;;5037905;28;20040;-79
2023/04/22 05:29:23;;;;;;;10.73;9.75;;;8.60;99.90;;;;;;5036767;28;20041;-80
2023/04/22 05:31:49;;;;;;;11.60;10.50;;;8.60;99.90;;;;;;5040116;28;20044;-80
2023/04/22 05:34:15;;;;;;;11.80;10.70;;;8.60;99.90;;;;;;5057489;28;20129;-80
2023/04/22 05:36:40;;;;;;;11.18;10.23;;;8.70;99.90;;;;;;5039627;28;20503;-81
2023/04/22 05:39:06;;;;;;;11.82;10.63;;;8.70;99.90;;;;;;5038974;28;20627;-81
2023/04/22 05:41:31;;;;;;;14.02;12.65;;;8.80;99.90;;;;;;5041627;28;20040;-79
2023/04/22 05:43:57;;;;;;;13.32;12.02;;;8.80;99.90;;;;;;5042783;28;20569;-80
2023/04/22 05:46:23;;;;;;;12.77;11.57;;;8.80;99.90;;;;;;5042585;28;20044;-80
2023/04/22 05:48:48;;;;;;;12.35;11.30;;;8.90;99.90;;;;;;5044217;28;20060;-80
2023/04/22 05:51:14;;;;;;;14.23;12.90;;;9.00;99.90;;;;;;5047653;28;20750;-80
2023/04/22 05:53:40;;;;;;;12.45;11.35;;;9.00;99.90;;;;;;5038336;28;20080;-79
2023/04/22 05:56:05;;;;;;;13.13;12.02;;;9.10;99.90;;;;;;5036150;28;20053;-79
2023/04/22 05:58:31;;;;;;;13.88;12.52;;;9.20;99.90;;;;;;5030384;28;20044;-79
2023/04/22 06:00:56;;;;;;;13.13;11.80;;;9.30;99.90;;;;;;5032560;28;20056;-79
2023/04/22 06:03:22;;;;;;;14.93;13.60;;;9.40;99.90;;;;;;5066080;28;20059;-78
2023/04/22 06:05:47;;;;;;;14.40;13.00;;;9.40;99.90;;;;;;5034370;28;20048;-78
2023/04/22 06:08:13;;;;;;;15.10;13.48;;;9.50;99.90;;;;;;5033293;28;20151;-79
2023/04/22 06:10:39;;;;;;;14.52;13.20;;;9.60;99.90;;;;;;5035609;28;20130;-79
2023/04/22 06:13:05;;;;;;;13.88;12.65;;;9.70;99.90;;;;;;5041994;28;20120;-82
2023/04/22 06:15:33;;;;;;;15.35;13.90;;;9.80;99.90;;;;;;5047098;28;20041;-80
2023/04/22 06:17:58;;;;;;;15.32;13.93;;;9.80;99.90;;;;;;5044096;28;20165;-79
2023/04/22 06:20:24;;;;;;;15.63;13.93;;;9.90;99.90;;;;;;5042402;28;20045;-80
2023/04/22 06:22:50;;;;;;;14.90;13.57;;;10.00;99.90;;;;;;5044171;28;20506;-80
2023/04/22 06:25:15;;;;;;;15.95;14.27;;;10.10;99.90;;;;;;5045968;28;20040;-80
2023/04/22 06:27:41;;;;;;;13.65;12.55;;;10.10;99.90;;;;;;5043501;28;20143;-80
2023/04/22 06:30:08;;;;;;;14.73;13.32;;;10.20;99.90;;;;;;5047075;28;20048;-80
2023/04/22 06:32:34;;;;;;;14.13;12.93;;;10.30;99.90;;;;;;5044791;28;20083;-80
2023/04/22 06:34:59;;;;;;;13.38;12.27;;;10.40;99.90;;;;;;5044792;28;20040;-79
2023/04/22 06:37:25;;;;;;;14.93;13.68;;;10.40;99.90;;;;;;5045862;28;20036;-80
2023/04/22 06:39:51;;;;;;;13.68;12.38;;;10.50;99.90;;;;;;5051524;28;20056;-80
2023/04/22 06:42:17;;;;;;;15.43;14.02;;;10.60;99.90;;;;;;5046512;28;20037;-82
2023/04/22 06:44:42;;;;;;;12.98;11.85;;;10.70;99.90;;;;;;5046152;28;20079;-81
2023/04/22 06:47:08;;;;;;;12.80;11.60;;;10.70;99.90;;;;;;5041134;28;20045;-81
2023/04/22 06:49:37;;;;;;;13.73;12.63;;;10.80;99.90;;;;;;5051751;28;20042;-80
2023/04/22 06:52:03;;;;;;;13.18;11.88;;;10.90;99.90;;;;;;5051470;28;20128;-80
2023/04/22 06:54:28;;;;;;;13.77;12.43;;;11.00;99.90;;;;;;5051036;28;20052;-80
2023/04/22 06:56:54;;;;;;;13.93;12.63;;;11.10;99.90;;;;;;5048551;28;20123;-81
2023/04/22 06:59:20;;;;;;;13.60;12.30;;;11.10;99.90;;;;;;5047482;28;20064;-81
2023/04/22 07:01:45;;;;;;;13.00;11.80;;;11.20;99.90;;;;;;5050447;28;20033;-81
2023/04/22 07:04:11;;;;;;;13.57;12.38;;;11.30;99.90;;;;;;5047087;28;20594;-81
2023/04/22 07:06:36;;;;;;;12.48;11.40;;;11.30;99.90;;;;;;5047274;28;20048;-80
2023/04/22 07:09:02;;;;;;;12.23;11.20;;;11.30;99.90;;;;;;5046421;28;20044;-80
2023/04/22 07:11:30;;;;;;;11.63;10.63;;;11.50;99.90;;;;;;5052096;28;20048;-80
2023/04/22 07:13:56;;;;;;;14.27;12.98;;;11.50;99.90;;;;;;5053080;28;20492;-80
2023/04/22 07:16:21;;;;;;;14.02;12.73;;;11.60;99.90;;;;;;5050425;28;20033;-80
2023/04/22 07:18:47;;;;;;;12.70;11.55;;;11.70;99.90;;;;;;5045522;28;20116;-80
2023/04/22 07:21:12;;;;;;;13.95;12.55;;;11.80;99.90;;;;;;5079003;28;20052;-80
2023/04/22 07:23:38;;;;;;;13.57;12.43;;;11.90;99.90;;;;;;5050750;28;20061;-80
2023/04/22 07:26:04;;;;;;;12.85;11.70;;;11.90;99.90;;;;;;5042643;28;20095;-80
2023/04/22 07:28:30;;;;;;;11.68;10.55;;;12.00;99.90;;;;;;5044163;28;20112;-80
2023/04/22 07:30:55;;;;;;;12.88;11.77;;;11.90;99.90;;;;;;5051108;28;20095;-80
2023/04/22 07:33:21;;;;;;;12.35;11.25;;;12.00;99.90;;;;;;5047435;28;20040;-80
2023/04/22 07:35:47;;;;;;;12.27;11.27;;;12.10;99.90;;;;;;5053749;28;20033;-80
2023/04/22 07:38:12;;;;;;;12.70;11.60;;;12.10;99.90;;;;;;5046365;28;20048;-80
2023/04/22 07:40:38;;;;;;;18.40;11.95;;;12.20;99.90;;;;;;5041910;28;20037;-80
2023/04/22 07:43:04;;;;;;;12.10;11.07;;;12.30;99.90;;;;;;5049580;28;20043;-80
2023/04/22 07:45:30;;;;;;;11.52;10.50;;;12.40;99.90;;;;;;5045794;28;20091;-80
2023/04/22 07:47:56;;;;;;;11.43;10.25;;;12.50;99.90;;;;;;5040721;28;20045;-80
2023/04/22 07:50:22;;;;;;;10.95;9.50;;;12.70;99.90;;;;;;5043435;28;20384;-81
2023/04/22 07:52:47;;;;;;;10.68;9.68;;;12.80;99.90;;;;;;5048141;28;20136;-80
2023/04/22 07:55:13;;;;;;;10.07;9.10;;;12.90;99.90;;;;;;5046460;28;20136;-81
2023/04/22 07:57:38;;;;;;;10.00;9.20;;;13.00;99.90;;;;;;5047081;28;20029;-80
2023/04/22 08:00:08;;;;;;;10.07;9.18;;;13.20;99.90;;;;;;5044125;28;20596;-81
2023/04/22 08:02:34;;;;;;;9.95;9.05;;;13.30;99.90;;;;;;5050083;28;20065;-81
2023/04/22 08:05:00;;;;;;;9.57;7.82;;;13.50;99.90;;;;;;5046465;28;20085;-80
2023/04/22 08:07:26;;;;;;;8.90;8.10;;;13.70;99.90;;;;;;5046399;28;20052;-80
2023/04/22 08:09:52;;;;;;;8.63;7.93;;;13.90;99.90;;;;;;5047418;28;20059;-80
2023/04/22 08:12:18;;;;;;;9.30;8.23;;;14.10;99.90;;;;;;5043913;28;20112;-80
2023/04/22 08:14:43;;;;;;;8.60;7.32;;;14.30;99.90;;;;;;5048819;28;20454;-81
2023/04/22 08:17:09;;;;;;;7.97;7.28;;;14.40;99.90;;;;;;5046774;28;20068;-80
2023/04/22 08:19:35;;;;;;;8.45;7.65;;;14.70;99.90;;;;;;5044723;28;20041;-81
2023/04/22 08:22:00;;;;;;;7.38;6.78;;;14.80;99.90;;;;;;5043525;28;20077;-81
2023/04/22 08:24:26;;;;;;;7.68;7.07;;;15.00;99.90;;;;;;5047071;28;20055;-80
2023/04/22 08:26:51;;;;;;;6.70;6.10;;;15.20;99.90;;;;;;5048555;28;20072;-81
2023/04/22 08:29:17;;;;;;;7.63;6.95;;;15.30;99.90;;;;;;5051204;28;20114;-80
2023/04/22 08:31:43;;;;;;;7.35;6.65;;;15.50;99.90;;;;;;5046434;28;20045;-81
2023/04/22 08:34:08;;;;;;;7.90;7.20;;;15.60;99.90;;;;;;5040316;28;20515;-81
2023/04/22 08:36:34;;;;;;;8.93;7.15;;;15.80;99.90;;;;;;5040296;28;20088;-81
2023/04/22 08:39:00;;;;;;;6.82;6.22;;;15.90;99.90;;;;;;5051015;28;20061;-80
2023/04/22 08:41:25;;;;;;;7.10;6.43;;;16.00;99.90;;;;;;5044334;28;20048;-81
2023/04/22 08:43:55;;;;;;;6.35;5.82;;;16.30;99.90;;;;;;5041159;28;20053;-81
2023/04/22 08:46:22;;;;;;;7.75;7.05;;;16.50;99.90;;;;;;5045984;28;20033;-81
2023/04/22 08:48:49;;;;;;;7.53;6.10;;;16.70;99.90;;;;;;5039624;28;20085;-81
2023/04/22 08:51:16;;;;;;;7.57;6.97;;;16.90;99.90;;;;;;5046260;28;20115;-81
2023/04/22 08:53:43;;;;;;;7.20;6.43;;;17.10;99.90;;;;;;5046942;28;20480;-81
2023/04/22 08:56:11;;;;;;;9.55;6.88;;;17.20;99.90;;;;;;5041927;28;20124;-83
2023/04/22 08:58:37;;;;;;;6.50;6.00;;;17.40;99.90;;;;;;5078408;28;20496;-82
2023/04/22 09:01:03;;;;;;;6.93;6.32;;;17.70;99.90;;;;;;5043712;28;20624;-79
2023/04/22 09:03:29;;;;;;;6.63;6.07;;;18.00;99.90;;;;;;5041043;28;20048;-79
2023/04/22 09:05:56;;;;;;;6.80;6.20;;;18.30;99.90;;;;;;5042265;28;20511;-79
2023/04/22 09:08:25;;;;;;;7.03;6.32;;;18.50;99.90;;;;;;5041095;28;20415;-80
2023/04/22 09:10:51;;;;;;;6.30;5.80;;;18.70;99.90;;;;;;5059440;28;20106;-80
2023/04/22 09:13:17;;;;;;;6.78;6.18;;;18.80;99.90;;;;;;5045829;28;20523;-79
2023/04/22 09:15:43;;;;;;;7.30;5.68;;;18.90;99.90;;;;;;5040211;28;20047;-81
2023/04/22 09:18:09;;;;;;;6.20;5.47;;;18.90;99.90;;;;;;5043132;28;20041;-80
2023/04/22 09:20:34;;;;;;;6.72;5.90;;;19.10;99.90;;;;;;5045480;28;20072;-80
2023/04/22 09:23:04;;;;;;;6.88;6.30;;;19.30;99.90;;;;;;5044983;28;20562;-84
2023/04/22 09:25:34;;;;;;;6.40;5.45;;;19.40;99.90;;;;;;5032975;28;20586;-79
2023/04/22 09:27:59;;;;;;;5.50;4.97;;;19.50;99.90;;;;;;5051812;28;20068;-81
2023/04/22 09:30:30;;;;;;;6.70;6.10;;;19.80;99.90;;;;;;5048260;28;20400;-80
2023/04/22 09:33:00;;;;;;;10.13;5.35;;;19.80;99.90;;;;;;5047873;28;20045;-81
2023/04/22 09:35:38;;;;;;;7.15;6.05;;;19.70;99.90;;;;;;5080343;28;20029;-81
2023/04/22 09:38:07;;;;;;;9.70;5.97;;;19.50;99.90;;;;;;5045201;28;20146;-83
2023/04/22 09:40:34;;;;;;;6.13;5.63;;;19.20;99.90;;;;;;5049322;28;20048;-81
2023/04/22 09:43:01;;;;;;;6.50;5.70;;;19.10;99.90;;;;;;5047059;28;20037;-82
2023/04/22 09:45:38;;;;;;;6.65;5.57;;;18.90;99.90;;;;;;5048952;28;20045;-82
2023/04/22 09:48:09;;;;;;;7.20;5.25;;;18.90;99.90;;;;;;5047151;28;20072;-83
2023/04/22 09:50:41;;;;;;;8.40;5.90;;;18.80;99.90;;;;;;5050622;28;20054;-83
2023/04/22 09:53:09;;;;;;;6.22;5.72;;;18.90;99.90;;;;;;5047436;28;20045;-81
2023/04/22 09:55:38;;;;;;;6.25;5.57;;;19.00;99.90;;;;;;5068133;28;20090;-81
2023/04/22 09:58:09;;;;;;;7.43;5.63;;;19.10;99.90;;;;;;5043917;28;20039;-83
2023/04/22 10:00:49;;;;;;;5.82;5.43;;;19.20;99.90;;;;;;5046341;28;20045;-84
2023/04/22 10:03:15;;;;;;;6.50;5.30;;;19.30;99.90;;;;;;5041032;28;20402;-81
2023/04/22 10:05:41;;;;;;;7.20;6.50;;;19.30;99.90;;;;;;5050592;28;20041;-83
2023/04/22 10:08:09;;;;;;;7.05;6.45;;;19.20;99.90;;;;;;5051967;28;20045;-82
2023/04/22 10:10:37;;;;;;;6.18;5.68;;;19.00;99.90;;;;;;5047897;28;20042;-83
2023/04/22 10:13:04;;;;;;;6.57;5.60;;;19.20;99.90;;;;;;5050011;28;20038;-81
2023/04/22 10:15:34;;;;;;;6.00;5.00;;;19.40;99.90;;;;;;5050168;28;20550;-81
2023/04/22 10:18:01;;;;;;;5.85;5.35;;;19.50;99.90;;;;;;5051307;28;20045;-81
2023/04/22 10:20:28;;;;;;;6.30;5.60;;;19.50;99.90;;;;;;5051127;28;20040;-83
2023/04/22 10:22:55;;;;;;;7.82;5.30;;;19.70;99.90;;;;;;5090134;28;20040;-81
2023/04/22 10:25:25;;;;;;;5.88;5.38;;;19.80;99.90;;;;;;5053791;28;20546;-83
2023/04/22 10:28:02;;;;;;;6.93;5.13;;;20.00;99.90;;;;;;5049839;28;20046;-81
2023/04/22 10:30:38;;;;;;;5.57;5.07;;;20.20;99.90;;;;;;5050677;28;20044;-80
2023/04/22 10:33:30;;;;;;;6.03;5.45;;;20.50;99.90;;;;;;5053786;28;20060;-83
2023/04/22 10:36:16;;;;;;;8.27;5.40;;;20.60;99.90;;;;;;5053840;28;20045;-81
2023/04/22 10:39:01;;;;;;;5.88;5.28;;;20.60;99.90;;;;;;5085430;28;20037;-82
2023/04/22 10:41:32;;;;;;;6.72;5.45;;;20.40;99.90;;;;;;5051596;28;20049;-82
2023/04/22 10:44:00;;;;;;;6.40;5.88;;;20.60;99.90;;;;;;5078793;28;20049;-80
2023/04/22 10:46:35;;;;;;;6.25;5.57;;;20.70;99.90;;;;;;5053210;28;20073;-81
2023/04/22 10:49:11;;;;;;;5.55;4.78;;;20.70;99.90;;;;;;5050814;28;20116;-82
2023/04/22 10:51:41;;;;;;;6.55;5.72;;;20.50;99.90;;;;;;5051293;28;20400;-82
2023/04/22 10:54:27;;;;;;;6.65;6.10;;;20.20;99.90;;;;;;5053522;28;20068;-80
2023/04/22 10:57:21;;;;;;;6.95;5.03;;;20.20;99.90;;;;;;5048079;28;20109;-80
2023/04/22 10:59:50;;;;;;;6.47;5.85;;;19.90;99.90;;;;;;5048103;28;20052;-82
2023/04/22 11:02:16;;;;;;;8.88;4.97;;;20.20;99.90;;;;;;5052363;28;20044;-81
2023/04/22 11:04:42;;;;;;;5.88;5.47;;;20.50;99.90;;;;;;5047016;28;20048;-80
2023/04/22 11:07:28;;;;;;;6.10;5.47;;;20.60;99.90;;;;;;5045568;28;20044;-80
2023/04/22 11:10:06;;;;;;;6.40;5.88;;;20.70;99.90;;;;;;5044719;28;20108;-80
2023/04/22 11:12:37;;;;;;;6.75;5.72;;;20.80;99.90;;;;;;5046317;28;20488;-81
2023/04/22 11:15:21;;;;;;;6.43;5.93;;;20.40;99.90;;;;;;5047879;28;20048;-82
2023/04/22 11:17:51;;;;;;;6.47;5.93;;;20.30;99.90;;;;;;5055639;28;20033;-81
2023/04/22 11:20:17;;;;;;;5.70;5.10;;;20.40;99.90;;;;;;5052157;28;20036;-82
2023/04/22 11:22:56;;;;;;;5.38;4.85;;;20.50;99.90;;;;;;5053362;28;20041;-82
2023/04/22 11:25:23;;;;;;;6.40;5.32;;;20.70;99.90;;;;;;5054597;28;20049;-83
2023/04/22 11:27:49;;;;;;;5.80;5.20;;;20.80;99.90;;;;;;5053427;28;20099;-82
2023/04/22 11:30:16;;;;;;;9.88;4.88;;;21.00;99.90;;;;;;5052920;28;20029;-81
2023/04/22 11:32:45;;;;;;;5.53;5.03;;;21.00;99.90;;;;;;5057551;28;20071;-81
2023/04/22 11:35:17;;;;;;;7.93;5.30;;;21.10;99.90;;;;;;5051526;28;20055;-82
2023/04/22 11:37:55;;;;;;;6.28;5.72;;;21.30;99.90;;;;;;5051742;28;20510;-81
2023/04/22 11:40:24;;;;;;;5.22;4.72;;;21.30;99.90;;;;;;5083676;28;20103;-81
2023/04/22 11:42:50;;;;;;;4.90;4.50;;;21.30;99.90;;;;;;5051332;28;20071;-82
2023/04/22 11:45:16;;;;;;;6.47;4.97;;;21.40;99.90;;;;;;5053578;28;20570;-82
2023/04/22 11:47:44;;;;;;;4.38;4.07;;;21.20;99.90;;;;;;5051734;28;20244;-81
2023/04/22 11:50:12;;;;;;;6.30;4.93;;;21.10;99.90;;;;;;5049213;28;20037;-81
2023/04/22 11:52:55;;;;;;;6.50;5.75;;;20.60;99.90;;;;;;5050666;28;20037;-81
2023/04/22 11:55:31;;;;;;;7.25;5.05;;;20.50;99.90;;;;;;5049458;28;20411;-81
2023/04/22 11:58:19;;;;;;;5.60;5.10;;;20.50;99.90;;;;;;5049061;28;20045;-81
2023/04/22 12:00:47;;;;;;;5.50;4.75;;;20.30;99.90;;;;;;5055686;28;20041;-81
2023/04/22 12:03:21;;;;;;;8.27;5.40;;;20.30;99.90;;;;;;5051416;28;20037;-81
2023/04/22 12:05:50;;;;;;;5.35;4.95;;;20.20;99.90;;;;;;5055660;28;20044;-83
2023/04/22 12:08:18;;;;;;;6.40;5.80;;;20.20;99.90;;;;;;5050887;28;20033;-81
2023/04/22 12:10:46;;;;;;;7.15;5.00;;;20.10;99.90;;;;;;5051194;28;20037;-82
2023/04/22 12:13:29;;;;;;;8.30;5.57;;;20.20;99.90;;;;;;5064787;28;20503;-81
2023/04/22 12:16:03;;;;;;;8.43;6.10;;;20.20;99.90;;;;;;5046521;28;20052;-81
2023/04/22 12:18:30;;;;;;;9.95;5.72;;;20.20;99.90;;;;;;5050678;28;20064;-81
2023/04/22 12:21:09;;;;;;;7.00;6.32;;;19.80;99.90;;;;;;5052895;28;20041;-81
2023/04/22 12:23:48;;;;;;;6.53;6.03;;;19.60;99.90;;;;;;5050692;28;20035;-81
2023/04/22 12:26:19;;;;;;;6.82;5.90;;;19.80;99.90;;;;;;5047363;28;20036;-82
2023/04/22 12:28:45;;;;;;;8.95;6.45;;;20.10;99.90;;;;;;5050016;28;20040;-81
2023/04/22 12:31:13;;;;;;;8.10;6.07;;;20.00;99.90;;;;;;5048385;28;20043;-81
2023/04/22 12:33:40;;;;;;;5.85;5.18;;;20.10;99.90;;;;;;5048251;28;20041;-81
2023/04/22 12:36:05;;;;;;;6.03;5.53;;;20.20;99.90;;;;;;5052359;28;20025;-81
2023/04/22 12:38:31;;;;;;;6.03;5.53;;;20.20;99.90;;;;;;5050249;28;20139;-81
2023/04/22 12:40:57;;;;;;;5.60;5.10;;;20.30;99.90;;;;;;5046313;28;20037;-82
2023/04/22 12:43:23;;;;;;;8.68;5.55;;;20.20;99.90;;;;;;5050670;28;20048;-82